Latest Weather Observations for Morawa Airport

IDW60801

Issued at 9:02 pm WST Sunday 24 May 2015 (issued every 30 minutes, with the page automatically refreshed every 10 minutes)

About weather observations | Map of weather stations | Latest weather observations for WA | Other Formats
Station Details ID: 008296 Name: MORAWA AIRPORT Lat: -29.20 Lon: 116.02 Height: 271.4 m
Data from the previous 72 hours. | See also: Recent months at Morawa Airport
Date/Time
WST
Temp
°C
App
Temp
°C
Dew
Point
Rel
Hum
%
Delta-T
°C
Wind Press
QNH
hPa
Press
MSL
hPa
Rain
since 9 am
mm
Dir
 
Spd
km/h
Gust
km/h
Spd
kts
Gust
kts
24/09:00pm 12.7 10.4 4.9 59 3.6 SSW 6 7 3 4 1020.8 1020.3 0.0
24/08:30pm 13.1 10.8 5.0 58 3.8 S 6 7 3 4 1020.6 1020.0 0.0
24/08:00pm 13.8 11.3 4.9 55 4.2 S 7 7 4 4 1020.5 1019.9 0.0
24/07:30pm 14.7 12.1 4.4 50 4.8 S 7 7 4 4 1020.4 1019.8 0.0
24/07:00pm 15.6 12.6 4.0 46 5.4 SSW 9 11 5 6 1020.2 1019.6 0.0
24/06:30pm 16.7 13.6 3.7 42 6.1 S 9 11 5 6 1019.9 1019.3 0.0
24/06:00pm 18.2 14.7 3.3 37 7.0 S 11 13 6 7 1019.5 1018.9 0.0
24/05:30pm 19.0 15.8 3.2 35 7.5 SSE 9 11 5 6 1019.3 1018.7 0.0
24/05:00pm 20.8 17.5 2.6 30 8.6 SSE 9 13 5 7 1019.1 1018.5 0.0
24/04:30pm 21.8 17.7 2.5 28 9.2 SSE 13 17 7 9 1019.0 1018.4 0.0
24/04:00pm 22.2 18.9 2.3 27 9.5 SE 9 15 5 8 1018.8 1018.2 0.0
24/03:30pm 22.3 18.6 2.4 27 9.5 ESE 11 19 6 10 1018.8 1018.2 0.0
24/03:00pm 22.5 18.8 2.6 27 9.5 SSE 11 17 6 9 1018.7 1018.1 0.0
24/02:30pm 22.6 19.1 3.7 29 9.3 SSE 11 19 6 10 1018.8 1018.2 0.0
24/02:00pm 22.7 19.3 3.8 29 9.3 SSE 11 17 6 9 1018.8 1018.2 0.0
24/01:30pm 22.0 19.1 4.6 32 8.7 SSE 9 17 5 9 1019.2 1018.6 0.0
24/01:00pm 21.7 18.2 3.4 30 8.9 SSE 11 17 6 9 1019.5 1018.9 0.0
24/12:30pm 21.2 17.9 4.3 33 8.3 SE 11 15 6 8 1019.9 1019.3 0.0
24/12:00pm 20.8 17.3 5.6 37 7.6 ESE 13 19 7 10 1020.4 1019.8 0.0
24/11:30am 20.2 16.9 6.5 41 7.0 ESE 13 22 7 12 1020.8 1020.3 0.0
24/11:00am 19.5 16.3 6.9 44 6.4 ESE 13 19 7 10 1021.3 1020.7 0.0
24/10:30am 18.5 16.5 8.5 52 5.2 ESE 9 11 5 6 1021.7 1021.1 0.0
24/10:00am 17.3 15.5 9.5 60 4.1 SE 9 13 5 7 1021.8 1021.2 0.0
24/09:30am 15.3 14.0 11.3 77 2.2 SSE 9 11 5 6 1021.8 1021.2 0.0
24/09:00am 13.8 12.8 12.2 90 0.9 SSE 9 11 5 6 1021.6 1021.0 0.0
24/08:30am 12.3 12.3 12.3 100 0.0 S 4 6 2 3 1021.5 1020.9 0.0
24/08:00am 11.0 11.3 11.0 100 0.0 CALM 0 0 0 0 1021.3 1020.7 0.0
24/07:30am 9.1 8.9 9.1 100 0.0 CALM 0 0 0 0 1021.1 1020.6 0.0
24/07:00am 8.5 8.2 8.5 100 0.0 CALM 0 0 0 0 1020.9 1020.4 0.0
24/06:30am 9.4 8.9 9.4 100 0.0 E 2 6 1 3 1020.8 1020.3 0.0
24/06:00am 9.6 8.8 9.6 100 0.0 ESE 4 6 2 3 1020.6 1020.0 0.0
24/05:30am 8.8 8.5 8.8 100 0.0 CALM 0 0 0 0 1020.6 1020.0 0.0
24/05:00am 9.9 8.8 9.9 100 0.0 SSE 6 7 3 4 1020.4 1019.8 0.0
24/04:30am 10.1 9.0 10.1 100 0.0 S 6 7 3 4 1020.3 1019.7 0.0
24/04:00am 9.5 8.1 9.5 100 0.0 SSW 7 7 4 4 1020.4 1019.8 0.0
24/03:30am 9.3 8.0 9.3 100 0.0 SSW 6 6 3 3 1020.4 1019.8 0.0
24/03:00am 9.9 9.2 9.9 100 0.0 SSW 4 6 2 3 1020.4 1019.8 0.0
24/02:30am 9.9 8.8 9.9 100 0.0 SSW 6 7 3 4 1020.3 1019.7 0.0
24/02:00am 10.4 9.7 10.2 99 0.1 SSW 4 6 2 3 1020.2 1019.6 0.0
24/01:30am 11.2 10.4 10.9 98 0.2 SW 6 7 3 4 1020.3 1019.7 0.0
24/01:00am 11.4 10.5 10.8 96 0.3 SW 6 7 3 4 1020.3 1019.7 0.0
24/12:30am 11.9 10.8 10.8 93 0.6 SSW 7 9 4 5 1020.4 1019.8 0.0
24/12:00am 12.0 10.9 10.6 91 0.7 SSW 7 9 4 5 1020.3 1019.7 0.0
 
Date/Time
WST
Temp
°C
App
Temp
°C
Dew
Point
Rel
Hum
%
Delta-T
°C
Wind Press
QNH
hPa
Press
MSL
hPa
Rain
since 9 am
mm
Dir
 
Spd
km/h
Gust
km/h
Spd
kts
Gust
kts
23/11:30pm 12.7 11.7 10.4 86 1.2 SSW 6 7 3 4 1020.3 1019.7 0.0
23/11:00pm 13.0 11.9 10.5 85 1.3 SW 7 9 4 5 1020.3 1019.7 0.0
23/10:30pm 13.1 11.8 9.9 81 1.7 SSW 7 9 4 5 1020.4 1019.8 0.0
23/10:00pm 13.1 11.9 9.5 79 1.9 SSW 6 7 3 4 1020.4 1019.8 0.0
23/09:30pm 13.7 12.4 9.2 74 2.3 SSW 6 7 3 4 1020.4 1019.8 0.0
23/09:00pm 14.5 12.9 8.9 69 2.9 SSW 7 9 4 5 1020.3 1019.7 0.0
23/08:30pm 15.1 13.0 8.3 64 3.5 SSW 9 13 5 7 1020.2 1019.6 0.0
23/08:00pm 15.8 13.6 7.8 59 4.1 SSW 9 13 5 7 1020.1 1019.5 0.0
23/07:30pm 15.3 13.3 7.3 59 4.0 SSW 7 11 4 6 1019.8 1019.2 0.0
23/07:00pm 15.8 13.8 7.1 56 4.3 S 7 9 4 5 1019.4 1018.8 0.0
23/06:30pm 17.2 15.1 6.7 50 5.3 SSW 7 9 4 5 1019.3 1018.7 0.0
23/06:00pm 18.0 15.8 6.2 46 5.9 SSW 7 11 4 6 1019.1 1018.5 0.0
23/05:30pm 19.3 16.2 5.7 41 6.8 SSW 11 13 6 7 1018.8 1018.2 0.0
23/05:00pm 20.6 17.0 5.0 36 7.7 SSW 13 17 7 9 1018.7 1018.1 0.0
23/04:30pm 21.4 17.9 5.3 35 8.1 SSW 13 20 7 11 1018.6 1018.0 0.0
23/04:00pm 21.4 17.8 4.9 34 8.2 SW 13 22 7 12 1018.5 1017.9 0.0
23/03:30pm 21.4 18.2 5.3 35 8.1 SSW 11 20 6 11 1018.3 1017.7 0.0
23/03:00pm 22.0 19.3 5.8 35 8.2 SSW 9 17 5 9 1018.1 1017.5 0.0
23/02:30pm 22.1 19.0 5.5 34 8.4 SW 11 20 6 11 1018.2 1017.6 0.0
23/02:00pm 22.0 19.1 6.3 36 8.0 SSW 11 17 6 9 1018.4 1017.8 0.0
23/01:30pm 21.7 18.8 6.4 37 7.9 SSW 11 20 6 11 1018.5 1017.9 0.0
23/01:00pm 21.7 18.4 6.4 37 7.8 SSW 13 22 7 12 1018.7 1018.1 0.0
23/12:30pm 21.4 18.1 8.0 42 7.1 S 15 26 8 14 1019.1 1018.5 0.0
23/12:00pm 21.1 17.7 7.7 42 7.0 SSW 15 24 8 13 1019.5 1018.9 0.0
23/11:30am 20.9 17.5 7.5 42 7.0 S 15 22 8 12 1019.8 1019.2 0.0
23/11:00am 20.2 16.5 7.9 45 6.4 S 17 22 9 12 1019.9 1019.3 0.0
23/10:30am 19.1 15.5 8.4 50 5.6 S 17 26 9 14 1020.0 1019.4 0.0
23/10:00am 18.4 15.3 8.9 54 5.0 S 15 20 8 11 1020.1 1019.5 0.0
23/09:30am 16.5 14.8 9.7 64 3.6 S 9 13 5 7 1020.2 1019.6 0.0
23/09:00am 14.2 12.6 8.8 70 2.8 S 7 13 4 7 1020.1 1019.5 0.0
23/08:30am 12.5 10.4 8.4 76 2.1 S 9 13 5 7 1019.8 1019.2 0.0
23/08:00am 11.4 9.3 8.4 82 1.5 SSW 9 13 5 7 1019.6 1019.0 0.0
23/07:30am 10.2 8.5 8.3 88 0.9 SW 7 11 4 6 1019.3 1018.7 0.0
23/07:00am 9.9 7.7 8.0 88 0.9 SW 9 13 5 7 1019.0 1018.4 0.0
23/06:30am 10.4 7.5 8.2 86 1.1 SW 13 17 7 9 1018.6 1018.0 0.0
23/06:00am 10.5 7.6 8.3 86 1.1 SW 13 17 7 9 1018.4 1017.8 0.0
23/05:30am 10.5 8.0 8.4 87 1.0 SW 11 17 6 9 1018.1 1017.5 0.0
23/05:00am 10.3 8.2 8.2 87 1.0 WSW 9 15 5 8 1017.9 1017.3 0.0
23/04:30am 10.5 8.4 8.3 86 1.1 WSW 9 13 5 7 1017.8 1017.2 0.0
23/04:00am 10.8 8.7 8.4 85 1.2 WSW 9 11 5 6 1017.7 1017.1 0.0
23/03:30am 11.0 9.0 8.6 85 1.2 SW 9 13 5 7 1017.6 1017.0 0.0
23/03:00am 10.9 9.5 8.7 86 1.1 SW 6 9 3 5 1017.7 1017.1 0.0
23/02:30am 10.2 8.7 8.5 89 0.8 SW 6 7 3 4 1017.8 1017.2 0.0
23/02:00am 9.8 9.0 8.2 90 0.8 WSW 2 6 1 3 1017.6 1017.0 0.0
23/01:30am 10.0 8.8 8.1 88 0.9 WSW 4 4 2 2 1017.6 1017.0 0.0
23/01:00am 10.9 9.6 7.8 81 1.5 WSW 4 7 2 4 1017.4 1016.7 0.0
23/12:30am 10.6 9.0 7.8 83 1.4 W 6 9 3 5 1017.5 1016.8 0.0
23/12:00am 10.7 9.1 8.1 84 1.3 WSW 6 7 3 4 1017.6 1017.0 0.0
 
Date/Time
WST
Temp
°C
App
Temp
°C
Dew
Point
Rel
Hum
%
Delta-T
°C
Wind Press
QNH
hPa
Press
MSL
hPa
Rain
since 9 am
mm
Dir
 
Spd
km/h
Gust
km/h
Spd
kts
Gust
kts
22/11:30pm 10.7 9.4 7.8 82 1.4 WSW 4 4 2 2 1017.7 1017.1 0.0
22/11:00pm 11.9 10.7 8.0 77 1.9 WSW 4 6 2 3 1017.8 1017.2 0.0
22/10:30pm 11.9 10.9 8.9 82 1.5 SW 4 6 2 3 1017.8 1017.2 0.0
22/10:00pm 11.6 11.3 8.6 82 1.5 CALM 0 0 0 0 1017.8 1017.2 0.0
22/09:30pm 12.7 12.4 8.6 76 2.1 CALM 0 0 0 0 1017.8 1017.2 0.0
22/09:00pm 12.9 11.3 8.8 76 2.1 NNE 7 11 4 6 1017.9 1017.3 0.0
22/08:30pm 12.9 11.9 8.8 76 2.1 NNE 4 4 2 2 1017.8 1017.2 0.0
22/08:00pm 13.2 12.7 9.3 77 2.0 ENE 2 4 1 2 1017.7 1017.1 0.0
22/07:30pm 13.9 13.7 8.9 72 2.6 CALM 0 0 0 0 1017.7 1017.1 0.0
22/07:00pm 14.7 14.7 9.7 72 2.6 CALM 0 0 0 0 1017.6 1017.0 0.0
22/06:30pm 15.7 15.3 9.8 68 3.1 ENE 2 2 1 1 1017.4 1016.7 0.0
22/06:00pm 17.1 16.2 9.3 60 4.1 ENE 4 6 2 3 1017.1 1016.5 0.0
22/05:30pm 19.6 18.3 7.7 46 6.2 ENE 4 4 2 2 1016.8 1016.2 0.0
22/05:00pm 21.8 20.7 6.9 38 7.7 E 2 4 1 2 1016.7 1016.1 0.0
22/04:30pm 22.3 21.1 6.5 36 8.2 ENE 2 6 1 3 1016.6 1016.0 0.0
22/04:00pm 22.9 21.0 6.6 35 8.5 ESE 6 9 3 5 1016.4 1015.8 0.0
22/03:30pm 22.9 21.4 6.6 35 8.5 NNE 4 7 2 4 1016.3 1015.7 0.0
22/03:00pm 22.7 21.1 6.5 35 8.4 E 4 7 2 4 1016.4 1015.8 0.0
22/02:30pm 22.4 21.3 7.0 37 8.0 WSW 2 4 1 2 1016.4 1015.8 0.0
22/02:00pm 22.3 20.7 6.5 36 8.2 W 4 6 2 3 1016.3 1015.7 0.0
22/01:30pm 22.4 20.9 7.0 37 8.0 NNE 4 9 2 5 1016.7 1016.1 0.0
22/01:00pm 21.9 19.8 6.6 37 7.9 N 7 13 4 7 1017.0 1016.4 0.0
22/12:30pm 21.0 19.0 6.9 40 7.3 NNE 7 13 4 7 1017.4 1016.7 0.0
22/12:00pm 19.8 17.2 6.2 41 6.9 NNE 9 17 5 9 1018.0 1017.4 0.0
22/11:30am 18.9 16.0 6.4 44 6.3 NE 11 17 6 9 1018.4 1017.8 0.0
22/11:00am 18.2 14.5 6.4 46 5.9 NE 15 20 8 11 1018.8 1018.2 0.0
22/10:30am 17.2 12.6 5.8 47 5.6 NE 19 24 10 13 1019.1 1018.5 0.0
22/10:00am 16.1 12.3 6.0 51 4.9 NE 15 22 8 12 1019.4 1018.8 0.0
22/09:30am 16.1 12.8 6.5 53 4.8 NE 13 20 7 11 1019.3 1018.7 0.0
22/09:00am 15.1 11.9 6.7 57 4.1 ENE 13 19 7 10 1019.4 1018.8 1.8
22/08:30am 12.4 12.2 9.2 81 1.6 CALM 0 0 0 0 1019.5 1018.9 1.8
22/08:00am 9.0 8.8 9.0 100 0.0 CALM 0 0 0 0 1019.5 1018.9 1.8
22/07:30am 7.4 6.8 7.4 100 0.0 CALM 0 0 0 0 1019.6 1019.0 1.8
22/07:00am 6.2 5.3 6.2 100 0.0 CALM 0 0 0 0 1019.4 1018.8 1.8
22/06:30am 6.4 5.2 6.4 100 0.0 ENE 2 4 1 2 1019.3 1018.7 1.8
22/06:00am 6.9 5.8 6.9 100 0.0 ENE 2 4 1 2 1019.4 1018.8 1.8
22/05:30am 7.1 5.7 7.1 100 0.0 ENE 4 6 2 3 1019.4 1018.8 1.8
22/05:00am 6.9 5.0 6.9 100 0.0 ENE 6 6 3 3 1019.2 1018.6 1.8
22/04:30am 7.0 5.5 7.0 100 0.0 ENE 4 4 2 2 1019.1 1018.5 1.8
22/04:00am 7.2 5.8 7.2 100 0.0 ESE 4 4 2 2 1019.2 1018.6 1.8
22/03:30am 7.5 6.9 7.5 100 0.0 CALM 0 0 0 0 1019.5 1018.9 1.8
22/03:00am 7.5 6.2 7.5 100 0.0 ENE 4 6 2 3 1019.6 1019.0 1.8
22/02:30am 7.2 5.8 7.2 100 0.0 E 4 6 2 3 1019.6 1019.0 1.8
22/02:00am 7.5 6.9 7.5 100 0.0 CALM 0 0 0 0 1019.9 1019.3 1.8
22/01:30am 7.8 7.3 7.7 99 0.0 CALM 0 0 0 0 1020.1 1019.5 1.8
22/01:00am 8.3 7.4 7.9 97 0.2 S 2 4 1 2 1020.4 1019.8 1.8
22/12:30am 9.0 7.8 7.9 93 0.5 S 4 6 2 3 1020.6 1020.0 1.8
22/12:00am 9.8 8.6 8.1 89 0.8 SSE 4 6 2 3 1020.9 1020.4 1.8
 
Date/Time
WST
Temp
°C
App
Temp
°C
Dew
Point
Rel
Hum
%
Delta-T
°C
Wind Press
QNH
hPa
Press
MSL
hPa
Rain
since 9 am
mm
Dir
 
Spd
km/h
Gust
km/h
Spd
kts
Gust
kts
21/11:30pm 9.8 8.7 8.4 91 0.7 SSE 4 6 2 3 1021.1 1020.6 1.8
21/11:00pm 9.9 8.6 7.8 87 1.0 S 4 6 2 3 1021.1 1020.6 1.8
21/10:30pm 10.4 8.8 7.8 84 1.3 SE 6 7 3 4 1021.3 1020.7 1.8
21/10:00pm 10.5 8.8 7.7 83 1.4 SE 6 6 3 3 1021.4 1020.8 1.8
21/09:30pm 11.1 9.2 7.6 79 1.7 ESE 7 9 4 5 1021.5 1020.9 1.8

Other Formats:

Comma delimited format used in spreadsheet applications
http://www.bom.gov.au/fwo/IDW60801/IDW60801.94417.axf

JavaScript Object Notation format (JSON) in row-major order
http://www.bom.gov.au/fwo/IDW60801/IDW60801.94417.json